sensor_id;sensor_type;location;lat;lon;timestamp;P1;durP1;ratioP1;P2;durP2;ratioP2
70132;SDS011;57495;49.922;7.966;2023-12-20T00:01:15;6.57;;;3.00;;
70132;SDS011;57495;49.922;7.966;2023-12-20T00:03:18;7.95;;;3.05;;
70132;SDS011;57495;49.922;7.966;2023-12-20T00:05:19;6.43;;;3.05;;
70132;SDS011;57495;49.922;7.966;2023-12-20T00:07:21;6.78;;;3.13;;
70132;SDS011;57495;49.922;7.966;2023-12-20T00:09:22;6.25;;;2.90;;
70132;SDS011;57495;49.922;7.966;2023-12-20T00:11:22;6.30;;;2.97;;
70132;SDS011;57495;49.922;7.966;2023-12-20T00:13:24;5.43;;;2.28;;
70132;SDS011;57495;49.922;7.966;2023-12-20T00:15:25;6.40;;;3.13;;
70132;SDS011;57495;49.922;7.966;2023-12-20T00:17:26;6.90;;;2.50;;
70132;SDS011;57495;49.922;7.966;2023-12-20T00:19:28;6.67;;;2.70;;
70132;SDS011;57495;49.922;7.966;2023-12-20T00:21:30;6.30;;;2.63;;
70132;SDS011;57495;49.922;7.966;2023-12-20T00:23:32;5.95;;;2.28;;
70132;SDS011;57495;49.922;7.966;2023-12-20T00:25:33;5.55;;;2.28;;
70132;SDS011;57495;49.922;7.966;2023-12-20T00:27:35;5.13;;;2.10;;
70132;SDS011;57495;49.922;7.966;2023-12-20T00:29:36;5.47;;;1.97;;
70132;SDS011;57495;49.922;7.966;2023-12-20T00:31:38;6.30;;;1.95;;
70132;SDS011;57495;49.922;7.966;2023-12-20T00:33:39;6.28;;;2.00;;
70132;SDS011;57495;49.922;7.966;2023-12-20T00:35:44;5.50;;;2.17;;
70132;SDS011;57495;49.922;7.966;2023-12-20T00:37:46;5.75;;;2.30;;
70132;SDS011;57495;49.922;7.966;2023-12-20T00:39:47;5.63;;;2.13;;
70132;SDS011;57495;49.922;7.966;2023-12-20T00:41:49;6.47;;;2.42;;
70132;SDS011;57495;49.922;7.966;2023-12-20T00:43:50;7.10;;;2.25;;
70132;SDS011;57495;49.922;7.966;2023-12-20T00:45:51;5.80;;;2.50;;
70132;SDS011;57495;49.922;7.966;2023-12-20T00:47:53;5.78;;;2.35;;
70132;SDS011;57495;49.922;7.966;2023-12-20T00:49:54;5.40;;;1.93;;
70132;SDS011;57495;49.922;7.966;2023-12-20T00:51:56;5.35;;;2.15;;
70132;SDS011;57495;49.922;7.966;2023-12-20T00:53:58;5.43;;;1.90;;
70132;SDS011;57495;49.922;7.966;2023-12-20T00:55:59;5.53;;;2.05;;
70132;SDS011;57495;49.922;7.966;2023-12-20T00:58:00;6.93;;;2.15;;
70132;SDS011;57495;49.922;7.966;2023-12-20T01:00:02;5.22;;;2.05;;
70132;SDS011;57495;49.922;7.966;2023-12-20T01:02:04;5.18;;;2.40;;
70132;SDS011;57495;49.922;7.966;2023-12-20T01:04:05;6.90;;;2.43;;
70132;SDS011;57495;49.922;7.966;2023-12-20T01:06:06;5.30;;;1.92;;
70132;SDS011;57495;49.922;7.966;2023-12-20T01:08:08;5.77;;;2.20;;
70132;SDS011;57495;49.922;7.966;2023-12-20T01:10:09;5.18;;;1.55;;
70132;SDS011;57495;49.922;7.966;2023-12-20T01:12:10;6.32;;;2.30;;
70132;SDS011;57495;49.922;7.966;2023-12-20T01:14:11;5.87;;;2.17;;
70132;SDS011;57495;49.922;7.966;2023-12-20T01:16:12;5.70;;;1.88;;
70132;SDS011;57495;49.922;7.966;2023-12-20T01:18:14;6.13;;;2.20;;
70132;SDS011;57495;49.922;7.966;2023-12-20T01:20:15;4.90;;;1.90;;
70132;SDS011;57495;49.922;7.966;2023-12-20T01:22:15;4.60;;;2.07;;
70132;SDS011;57495;49.922;7.966;2023-12-20T01:24:18;5.07;;;2.13;;
70132;SDS011;57495;49.922;7.966;2023-12-20T01:26:19;4.80;;;1.70;;
70132;SDS011;57495;49.922;7.966;2023-12-20T01:28:21;5.53;;;2.50;;
70132;SDS011;57495;49.922;7.966;2023-12-20T01:30:23;4.57;;;1.80;;
70132;SDS011;57495;49.922;7.966;2023-12-20T01:32:24;4.57;;;1.63;;
70132;SDS011;57495;49.922;7.966;2023-12-20T01:34:25;4.68;;;1.85;;
70132;SDS011;57495;49.922;7.966;2023-12-20T01:36:27;4.90;;;1.90;;
70132;SDS011;57495;49.922;7.966;2023-12-20T01:38:29;3.80;;;1.25;;
70132;SDS011;57495;49.922;7.966;2023-12-20T01:40:32;4.85;;;1.88;;
70132;SDS011;57495;49.922;7.966;2023-12-20T01:42:33;5.28;;;1.77;;
70132;SDS011;57495;49.922;7.966;2023-12-20T01:44:34;5.15;;;1.73;;
70132;SDS011;57495;49.922;7.966;2023-12-20T01:46:36;5.80;;;2.10;;
70132;SDS011;57495;49.922;7.966;2023-12-20T01:48:37;4.40;;;1.58;;
70132;SDS011;57495;49.922;7.966;2023-12-20T01:50:38;5.68;;;1.83;;
70132;SDS011;57495;49.922;7.966;2023-12-20T01:52:41;5.15;;;2.10;;
70132;SDS011;57495;49.922;7.966;2023-12-20T01:54:42;4.47;;;1.63;;
70132;SDS011;57495;49.922;7.966;2023-12-20T01:56:45;4.80;;;1.83;;
70132;SDS011;57495;49.922;7.966;2023-12-20T01:58:47;5.57;;;1.90;;
70132;SDS011;57495;49.922;7.966;2023-12-20T02:00:49;5.15;;;1.73;;
70132;SDS011;57495;49.922;7.966;2023-12-20T02:02:51;4.70;;;1.90;;
70132;SDS011;57495;49.922;7.966;2023-12-20T02:04:54;4.53;;;1.67;;
70132;SDS011;57495;49.922;7.966;2023-12-20T02:06:56;5.80;;;1.75;;
70132;SDS011;57495;49.922;7.966;2023-12-20T02:08:59;5.75;;;1.85;;
70132;SDS011;57495;49.922;7.966;2023-12-20T02:11:01;4.05;;;1.50;;
70132;SDS011;57495;49.922;7.966;2023-12-20T02:13:04;4.93;;;2.00;;
70132;SDS011;57495;49.922;7.966;2023-12-20T02:15:05;4.63;;;1.75;;
70132;SDS011;57495;49.922;7.966;2023-12-20T02:17:08;4.57;;;1.65;;
70132;SDS011;57495;49.922;7.966;2023-12-20T02:19:10;4.45;;;1.48;;
70132;SDS011;57495;49.922;7.966;2023-12-20T02:21:15;5.07;;;1.73;;
70132;SDS011;57495;49.922;7.966;2023-12-20T02:23:18;6.85;;;1.73;;
70132;SDS011;57495;49.922;7.966;2023-12-20T02:25:19;4.90;;;2.00;;
70132;SDS011;57495;49.922;7.966;2023-12-20T02:27:19;3.90;;;1.27;;
70132;SDS011;57495;49.922;7.966;2023-12-20T02:29:21;4.38;;;1.45;;
70132;SDS011;57495;49.922;7.966;2023-12-20T02:31:23;4.35;;;1.60;;
70132;SDS011;57495;49.922;7.966;2023-12-20T02:33:23;4.60;;;1.50;;
70132;SDS011;57495;49.922;7.966;2023-12-20T02:35:25;4.50;;;1.35;;
70132;SDS011;57495;49.922;7.966;2023-12-20T02:37:25;3.67;;;1.00;;
70132;SDS011;57495;49.922;7.966;2023-12-20T02:39:28;4.50;;;1.60;;
70132;SDS011;57495;49.922;7.966;2023-12-20T02:41:29;3.80;;;1.20;;
70132;SDS011;57495;49.922;7.966;2023-12-20T02:43:31;3.80;;;1.30;;
70132;SDS011;57495;49.922;7.966;2023-12-20T02:45:31;4.27;;;1.20;;
70132;SDS011;57495;49.922;7.966;2023-12-20T02:47:32;3.63;;;1.30;;
70132;SDS011;57495;49.922;7.966;2023-12-20T02:49:34;4.20;;;0.90;;
70132;SDS011;57495;49.922;7.966;2023-12-20T02:51:35;4.97;;;1.00;;
70132;SDS011;57495;49.922;7.966;2023-12-20T02:53:38;3.53;;;1.02;;
70132;SDS011;57495;49.922;7.966;2023-12-20T02:55:41;2.65;;;0.60;;
70132;SDS011;57495;49.922;7.966;2023-12-20T02:57:42;3.67;;;1.35;;
70132;SDS011;57495;49.922;7.966;2023-12-20T02:59:44;3.47;;;0.60;;
70132;SDS011;57495;49.922;7.966;2023-12-20T03:01:45;3.53;;;0.75;;
70132;SDS011;57495;49.922;7.966;2023-12-20T03:03:47;3.00;;;0.88;;
70132;SDS011;57495;49.922;7.966;2023-12-20T03:05:48;4.78;;;0.98;;
70132;SDS011;57495;49.922;7.966;2023-12-20T03:07:49;2.80;;;0.68;;
70132;SDS011;57495;49.922;7.966;2023-12-20T03:09:51;3.80;;;0.77;;
70132;SDS011;57495;49.922;7.966;2023-12-20T03:11:53;3.55;;;1.00;;
70132;SDS011;57495;49.922;7.966;2023-12-20T03:13:55;3.95;;;0.95;;
70132;SDS011;57495;49.922;7.966;2023-12-20T03:15:55;3.10;;;0.73;;
70132;SDS011;57495;49.922;7.966;2023-12-20T03:17:57;3.40;;;0.90;;
70132;SDS011;57495;49.922;7.966;2023-12-20T03:19:59;3.40;;;0.88;;
70132;SDS011;57495;49.922;7.966;2023-12-20T03:22:02;3.20;;;0.93;;
70132;SDS011;57495;49.922;7.966;2023-12-20T03:24:03;3.08;;;1.02;;
70132;SDS011;57495;49.922;7.966;2023-12-20T03:26:06;3.75;;;1.27;;
70132;SDS011;57495;49.922;7.966;2023-12-20T03:28:09;3.03;;;0.68;;
70132;SDS011;57495;49.922;7.966;2023-12-20T03:30:11;3.20;;;0.80;;
70132;SDS011;57495;49.922;7.966;2023-12-20T03:32:12;3.13;;;0.80;;
70132;SDS011;57495;49.922;7.966;2023-12-20T03:34:13;3.47;;;1.00;;
70132;SDS011;57495;49.922;7.966;2023-12-20T03:36:14;3.55;;;0.90;;
70132;SDS011;57495;49.922;7.966;2023-12-20T03:38:15;2.97;;;0.75;;
70132;SDS011;57495;49.922;7.966;2023-12-20T03:40:16;3.63;;;0.93;;
70132;SDS011;57495;49.922;7.966;2023-12-20T03:42:18;3.92;;;1.02;;
70132;SDS011;57495;49.922;7.966;2023-12-20T03:44:20;4.38;;;1.13;;
70132;SDS011;57495;49.922;7.966;2023-12-20T03:46:22;3.00;;;0.77;;
70132;SDS011;57495;49.922;7.966;2023-12-20T03:48:23;3.35;;;0.80;;
70132;SDS011;57495;49.922;7.966;2023-12-20T03:50:24;3.00;;;1.00;;
70132;SDS011;57495;49.922;7.966;2023-12-20T03:52:25;3.30;;;0.80;;
70132;SDS011;57495;49.922;7.966;2023-12-20T03:54:27;3.60;;;1.20;;
70132;SDS011;57495;49.922;7.966;2023-12-20T03:56:28;3.42;;;1.10;;
70132;SDS011;57495;49.922;7.966;2023-12-20T03:58:29;4.00;;;1.02;;
70132;SDS011;57495;49.922;7.966;2023-12-20T04:00:32;4.90;;;0.70;;
70132;SDS011;57495;49.922;7.966;2023-12-20T04:02:33;2.72;;;0.70;;
70132;SDS011;57495;49.922;7.966;2023-12-20T04:04:34;2.75;;;0.73;;
70132;SDS011;57495;49.922;7.966;2023-12-20T04:06:35;3.60;;;1.08;;
70132;SDS011;57495;49.922;7.966;2023-12-20T04:08:37;2.95;;;0.80;;
70132;SDS011;57495;49.922;7.966;2023-12-20T04:10:38;4.28;;;0.80;;
70132;SDS011;57495;49.922;7.966;2023-12-20T04:12:39;2.97;;;0.63;;
70132;SDS011;57495;49.922;7.966;2023-12-20T04:14:40;4.30;;;0.85;;
70132;SDS011;57495;49.922;7.966;2023-12-20T04:16:42;3.17;;;0.80;;
70132;SDS011;57495;49.922;7.966;2023-12-20T04:18:43;2.83;;;0.60;;
70132;SDS011;57495;49.922;7.966;2023-12-20T04:20:45;3.22;;;0.82;;
70132;SDS011;57495;49.922;7.966;2023-12-20T04:22:46;3.72;;;0.73;;
70132;SDS011;57495;49.922;7.966;2023-12-20T04:24:47;2.78;;;0.68;;
70132;SDS011;57495;49.922;7.966;2023-12-20T04:26:49;3.33;;;0.73;;
70132;SDS011;57495;49.922;7.966;2023-12-20T04:28:50;3.30;;;0.80;;
70132;SDS011;57495;49.922;7.966;2023-12-20T04:30:52;2.80;;;0.70;;
70132;SDS011;57495;49.922;7.966;2023-12-20T04:32:54;4.05;;;0.70;;
70132;SDS011;57495;49.922;7.966;2023-12-20T04:34:57;3.47;;;0.77;;
70132;SDS011;57495;49.922;7.966;2023-12-20T04:36:58;3.65;;;1.08;;
70132;SDS011;57495;49.922;7.966;2023-12-20T04:39:01;4.45;;;1.17;;
70132;SDS011;57495;49.922;7.966;2023-12-20T04:41:03;3.40;;;0.80;;
70132;SDS011;57495;49.922;7.966;2023-12-20T04:43:04;4.40;;;0.82;;
70132;SDS011;57495;49.922;7.966;2023-12-20T04:45:06;4.75;;;0.60;;
70132;SDS011;57495;49.922;7.966;2023-12-20T04:47:08;6.30;;;0.75;;
70132;SDS011;57495;49.922;7.966;2023-12-20T04:49:10;6.95;;;0.80;;
70132;SDS011;57495;49.922;7.966;2023-12-20T04:51:11;2.88;;;0.40;;
70132;SDS011;57495;49.922;7.966;2023-12-20T04:53:12;4.28;;;0.63;;
70132;SDS011;57495;49.922;7.966;2023-12-20T04:55:14;3.92;;;0.70;;
70132;SDS011;57495;49.922;7.966;2023-12-20T04:57:15;4.30;;;0.80;;
70132;SDS011;57495;49.922;7.966;2023-12-20T04:59:16;4.22;;;0.93;;
70132;SDS011;57495;49.922;7.966;2023-12-20T05:01:17;8.43;;;0.80;;
70132;SDS011;57495;49.922;7.966;2023-12-20T05:03:19;3.55;;;0.50;;
70132;SDS011;57495;49.922;7.966;2023-12-20T05:05:20;5.43;;;0.70;;
70132;SDS011;57495;49.922;7.966;2023-12-20T05:07:22;5.20;;;0.88;;
70132;SDS011;57495;49.922;7.966;2023-12-20T05:09:23;6.70;;;0.82;;
70132;SDS011;57495;49.922;7.966;2023-12-20T05:11:25;6.15;;;0.85;;
70132;SDS011;57495;49.922;7.966;2023-12-20T05:13:26;3.45;;;0.47;;
70132;SDS011;57495;49.922;7.966;2023-12-20T05:15:27;4.05;;;0.68;;
70132;SDS011;57495;49.922;7.966;2023-12-20T05:17:29;7.35;;;0.90;;
70132;SDS011;57495;49.922;7.966;2023-12-20T05:19:29;4.72;;;1.00;;
70132;SDS011;57495;49.922;7.966;2023-12-20T05:21:32;4.80;;;1.63;;
70132;SDS011;57495;49.922;7.966;2023-12-20T05:23:33;4.72;;;0.85;;
70132;SDS011;57495;49.922;7.966;2023-12-20T05:25:35;6.43;;;1.02;;
70132;SDS011;57495;49.922;7.966;2023-12-20T05:27:36;5.95;;;0.90;;
70132;SDS011;57495;49.922;7.966;2023-12-20T05:29:37;3.53;;;0.93;;
70132;SDS011;57495;49.922;7.966;2023-12-20T05:31:38;5.25;;;0.85;;
70132;SDS011;57495;49.922;7.966;2023-12-20T05:33:38;5.77;;;0.83;;
70132;SDS011;57495;49.922;7.966;2023-12-20T05:35:40;2.50;;;0.45;;
70132;SDS011;57495;49.922;7.966;2023-12-20T05:37:42;3.92;;;0.80;;
70132;SDS011;57495;49.922;7.966;2023-12-20T05:39:44;4.87;;;0.93;;
70132;SDS011;57495;49.922;7.966;2023-12-20T05:41:44;3.90;;;0.70;;
70132;SDS011;57495;49.922;7.966;2023-12-20T05:43:46;4.30;;;1.07;;
70132;SDS011;57495;49.922;7.966;2023-12-20T05:45:47;5.10;;;0.77;;
70132;SDS011;57495;49.922;7.966;2023-12-20T05:47:48;5.88;;;0.90;;
70132;SDS011;57495;49.922;7.966;2023-12-20T05:49:50;5.22;;;0.57;;
70132;SDS011;57495;49.922;7.966;2023-12-20T05:51:51;5.97;;;0.95;;
70132;SDS011;57495;49.922;7.966;2023-12-20T05:53:54;5.43;;;1.13;;
70132;SDS011;57495;49.922;7.966;2023-12-20T05:55:55;4.00;;;0.52;;
70132;SDS011;57495;49.922;7.966;2023-12-20T05:57:57;7.95;;;1.17;;
70132;SDS011;57495;49.922;7.966;2023-12-20T05:59:58;6.07;;;1.05;;
70132;SDS011;57495;49.922;7.966;2023-12-20T06:02:00;6.28;;;1.02;;
70132;SDS011;57495;49.922;7.966;2023-12-20T06:04:01;5.60;;;0.60;;
70132;SDS011;57495;49.922;7.966;2023-12-20T06:06:06;5.20;;;0.90;;
70132;SDS011;57495;49.922;7.966;2023-12-20T06:08:08;2.80;;;0.77;;
70132;SDS011;57495;49.922;7.966;2023-12-20T06:10:11;4.10;;;0.77;;
70132;SDS011;57495;49.922;7.966;2023-12-20T06:12:13;5.88;;;1.20;;
70132;SDS011;57495;49.922;7.966;2023-12-20T06:14:15;3.80;;;0.70;;
70132;SDS011;57495;49.922;7.966;2023-12-20T06:16:16;4.68;;;1.50;;
70132;SDS011;57495;49.922;7.966;2023-12-20T06:18:18;4.32;;;0.80;;
70132;SDS011;57495;49.922;7.966;2023-12-20T06:20:19;4.70;;;0.60;;
70132;SDS011;57495;49.922;7.966;2023-12-20T06:22:21;6.85;;;0.60;;
70132;SDS011;57495;49.922;7.966;2023-12-20T06:24:22;5.50;;;0.90;;
70132;SDS011;57495;49.922;7.966;2023-12-20T06:26:29;5.07;;;1.00;;
70132;SDS011;57495;49.922;7.966;2023-12-20T06:28:30;4.05;;;0.57;;
70132;SDS011;57495;49.922;7.966;2023-12-20T06:30:32;6.38;;;1.13;;
70132;SDS011;57495;49.922;7.966;2023-12-20T06:32:34;6.65;;;1.38;;
70132;SDS011;57495;49.922;7.966;2023-12-20T06:34:35;4.30;;;0.60;;
70132;SDS011;57495;49.922;7.966;2023-12-20T06:36:38;3.22;;;0.52;;
70132;SDS011;57495;49.922;7.966;2023-12-20T06:38:39;5.15;;;0.70;;
70132;SDS011;57495;49.922;7.966;2023-12-20T06:40:42;6.50;;;1.10;;
70132;SDS011;57495;49.922;7.966;2023-12-20T06:42:45;4.35;;;0.77;;
70132;SDS011;57495;49.922;7.966;2023-12-20T06:44:47;3.60;;;0.63;;
70132;SDS011;57495;49.922;7.966;2023-12-20T06:46:48;7.90;;;0.70;;
70132;SDS011;57495;49.922;7.966;2023-12-20T06:48:49;4.35;;;0.90;;
70132;SDS011;57495;49.922;7.966;2023-12-20T06:50:51;7.70;;;0.82;;
70132;SDS011;57495;49.922;7.966;2023-12-20T06:52:54;4.32;;;0.65;;
70132;SDS011;57495;49.922;7.966;2023-12-20T06:54:55;5.93;;;1.00;;
70132;SDS011;57495;49.922;7.966;2023-12-20T06:56:56;8.60;;;0.60;;
70132;SDS011;57495;49.922;7.966;2023-12-20T06:58:59;5.80;;;0.73;;
70132;SDS011;57495;49.922;7.966;2023-12-20T07:01:01;6.50;;;0.85;;
70132;SDS011;57495;49.922;7.966;2023-12-20T07:03:02;8.23;;;1.15;;
70132;SDS011;57495;49.922;7.966;2023-12-20T07:05:04;5.47;;;0.70;;
70132;SDS011;57495;49.922;7.966;2023-12-20T07:07:05;8.75;;;1.05;;
70132;SDS011;57495;49.922;7.966;2023-12-20T07:09:07;4.97;;;0.70;;
70132;SDS011;57495;49.922;7.966;2023-12-20T07:11:08;3.42;;;0.55;;
70132;SDS011;57495;49.922;7.966;2023-12-20T07:13:09;8.27;;;1.00;;
70132;SDS011;57495;49.922;7.966;2023-12-20T07:15:12;10.55;;;0.95;;
70132;SDS011;57495;49.922;7.966;2023-12-20T07:17:12;8.27;;;0.85;;
70132;SDS011;57495;49.922;7.966;2023-12-20T07:19:15;4.78;;;0.85;;
70132;SDS011;57495;49.922;7.966;2023-12-20T07:21:16;5.95;;;0.95;;
70132;SDS011;57495;49.922;7.966;2023-12-20T07:23:18;7.43;;;0.73;;
70132;SDS011;57495;49.922;7.966;2023-12-20T07:25:20;10.18;;;0.98;;
70132;SDS011;57495;49.922;7.966;2023-12-20T07:27:21;5.00;;;0.70;;
70132;SDS011;57495;49.922;7.966;2023-12-20T07:29:22;6.75;;;0.90;;
70132;SDS011;57495;49.922;7.966;2023-12-20T07:31:24;10.25;;;1.02;;
70132;SDS011;57495;49.922;7.966;2023-12-20T07:33:27;4.50;;;0.57;;
70132;SDS011;57495;49.922;7.966;2023-12-20T07:35:28;4.30;;;0.93;;
70132;SDS011;57495;49.922;7.966;2023-12-20T07:37:30;7.88;;;0.60;;
70132;SDS011;57495;49.922;7.966;2023-12-20T07:39:31;4.65;;;0.50;;
70132;SDS011;57495;49.922;7.966;2023-12-20T07:41:32;5.53;;;0.88;;
70132;SDS011;57495;49.922;7.966;2023-12-20T07:43:34;4.18;;;0.65;;
70132;SDS011;57495;49.922;7.966;2023-12-20T07:45:34;7.45;;;0.90;;
70132;SDS011;57495;49.922;7.966;2023-12-20T07:47:37;6.40;;;0.45;;
70132;SDS011;57495;49.922;7.966;2023-12-20T07:49:38;7.13;;;0.70;;
70132;SDS011;57495;49.922;7.966;2023-12-20T07:51:39;5.28;;;0.90;;
70132;SDS011;57495;49.922;7.966;2023-12-20T07:53:40;6.22;;;0.82;;
70132;SDS011;57495;49.922;7.966;2023-12-20T07:55:42;5.78;;;1.08;;
70132;SDS011;57495;49.922;7.966;2023-12-20T07:57:43;6.35;;;0.88;;
70132;SDS011;57495;49.922;7.966;2023-12-20T07:59:44;4.55;;;0.50;;
70132;SDS011;57495;49.922;7.966;2023-12-20T08:01:46;5.97;;;1.25;;
70132;SDS011;57495;49.922;7.966;2023-12-20T08:03:49;7.05;;;1.25;;
70132;SDS011;57495;49.922;7.966;2023-12-20T08:05:51;6.55;;;1.35;;
70132;SDS011;57495;49.922;7.966;2023-12-20T08:07:51;11.00;;;2.80;;
70132;SDS011;57495;49.922;7.966;2023-12-20T08:09:54;8.32;;;1.45;;
70132;SDS011;57495;49.922;7.966;2023-12-20T08:11:56;7.35;;;1.55;;
70132;SDS011;57495;49.922;7.966;2023-12-20T08:13:59;4.97;;;1.20;;
70132;SDS011;57495;49.922;7.966;2023-12-20T08:16:00;7.18;;;1.10;;
70132;SDS011;57495;49.922;7.966;2023-12-20T08:18:03;5.57;;;0.90;;
70132;SDS011;57495;49.922;7.966;2023-12-20T08:20:07;5.25;;;1.15;;
70132;SDS011;57495;49.922;7.966;2023-12-20T08:22:08;4.65;;;1.10;;
70132;SDS011;57495;49.922;7.966;2023-12-20T08:24:10;7.25;;;1.10;;
70132;SDS011;57495;49.922;7.966;2023-12-20T08:26:10;14.20;;;1.40;;
70132;SDS011;57495;49.922;7.966;2023-12-20T08:28:11;8.77;;;1.23;;
70132;SDS011;57495;49.922;7.966;2023-12-20T08:30:13;4.82;;;1.02;;
70132;SDS011;57495;49.922;7.966;2023-12-20T08:32:17;4.75;;;0.95;;
70132;SDS011;57495;49.922;7.966;2023-12-20T08:34:18;6.85;;;1.00;;
70132;SDS011;57495;49.922;7.966;2023-12-20T08:36:21;11.73;;;1.70;;
70132;SDS011;57495;49.922;7.966;2023-12-20T08:38:23;6.60;;;1.13;;
70132;SDS011;57495;49.922;7.966;2023-12-20T08:40:24;6.25;;;0.82;;
70132;SDS011;57495;49.922;7.966;2023-12-20T08:42:26;8.05;;;1.00;;
70132;SDS011;57495;49.922;7.966;2023-12-20T08:44:31;10.50;;;0.95;;
70132;SDS011;57495;49.922;7.966;2023-12-20T08:46:32;6.20;;;1.13;;
70132;SDS011;57495;49.922;7.966;2023-12-20T08:48:33;8.23;;;1.17;;
70132;SDS011;57495;49.922;7.966;2023-12-20T08:50:35;5.60;;;0.93;;
70132;SDS011;57495;49.922;7.966;2023-12-20T08:52:38;7.45;;;1.40;;
70132;SDS011;57495;49.922;7.966;2023-12-20T08:54:40;6.93;;;1.42;;
70132;SDS011;57495;49.922;7.966;2023-12-20T08:56:41;10.20;;;2.00;;
70132;SDS011;57495;49.922;7.966;2023-12-20T08:58:43;9.60;;;1.20;;
70132;SDS011;57495;49.922;7.966;2023-12-20T09:00:45;4.50;;;0.90;;
70132;SDS011;57495;49.922;7.966;2023-12-20T09:02:46;7.57;;;1.13;;
70132;SDS011;57495;49.922;7.966;2023-12-20T09:04:48;5.72;;;1.63;;
70132;SDS011;57495;49.922;7.966;2023-12-20T09:06:49;11.70;;;4.00;;
70132;SDS011;57495;49.922;7.966;2023-12-20T09:08:52;8.23;;;2.50;;
70132;SDS011;57495;49.922;7.966;2023-12-20T09:10:53;7.03;;;1.05;;
70132;SDS011;57495;49.922;7.966;2023-12-20T09:12:55;6.07;;;1.27;;
70132;SDS011;57495;49.922;7.966;2023-12-20T09:14:57;6.57;;;1.30;;
70132;SDS011;57495;49.922;7.966;2023-12-20T09:16:58;8.82;;;1.85;;
70132;SDS011;57495;49.922;7.966;2023-12-20T09:19:01;6.27;;;1.00;;
70132;SDS011;57495;49.922;7.966;2023-12-20T09:21:01;7.72;;;1.10;;
70132;SDS011;57495;49.922;7.966;2023-12-20T09:23:03;6.17;;;1.13;;
70132;SDS011;57495;49.922;7.966;2023-12-20T09:25:05;10.80;;;1.52;;
70132;SDS011;57495;49.922;7.966;2023-12-20T09:27:07;6.55;;;1.05;;
70132;SDS011;57495;49.922;7.966;2023-12-20T09:29:08;6.28;;;1.50;;
70132;SDS011;57495;49.922;7.966;2023-12-20T09:31:15;7.70;;;1.35;;
70132;SDS011;57495;49.922;7.966;2023-12-20T09:33:16;7.68;;;1.40;;
70132;SDS011;57495;49.922;7.966;2023-12-20T09:35:17;8.00;;;1.27;;
70132;SDS011;57495;49.922;7.966;2023-12-20T09:37:19;5.70;;;0.95;;
70132;SDS011;57495;49.922;7.966;2023-12-20T09:39:20;8.60;;;1.75;;
70132;SDS011;57495;49.922;7.966;2023-12-20T09:41:22;11.50;;;1.80;;
70132;SDS011;57495;49.922;7.966;2023-12-20T09:43:26;5.90;;;0.95;;
70132;SDS011;57495;49.922;7.966;2023-12-20T09:45:29;7.30;;;1.38;;
70132;SDS011;57495;49.922;7.966;2023-12-20T09:47:31;5.63;;;1.30;;
70132;SDS011;57495;49.922;7.966;2023-12-20T09:49:33;7.20;;;1.83;;
70132;SDS011;57495;49.922;7.966;2023-12-20T09:51:36;6.25;;;1.10;;
70132;SDS011;57495;49.922;7.966;2023-12-20T09:53:37;9.20;;;1.40;;
70132;SDS011;57495;49.922;7.966;2023-12-20T09:55:41;7.50;;;1.40;;
70132;SDS011;57495;49.922;7.966;2023-12-20T09:57:44;6.85;;;1.25;;
70132;SDS011;57495;49.922;7.966;2023-12-20T09:59:45;8.13;;;1.77;;
70132;SDS011;57495;49.922;7.966;2023-12-20T10:01:47;6.10;;;1.35;;
70132;SDS011;57495;49.922;7.966;2023-12-20T10:03:50;5.10;;;1.10;;
70132;SDS011;57495;49.922;7.966;2023-12-20T10:05:52;5.32;;;1.10;;
70132;SDS011;57495;49.922;7.966;2023-12-20T10:07:55;7.10;;;1.48;;
70132;SDS011;57495;49.922;7.966;2023-12-20T10:09:56;6.22;;;1.35;;
70132;SDS011;57495;49.922;7.966;2023-12-20T10:11:58;7.90;;;1.27;;
70132;SDS011;57495;49.922;7.966;2023-12-20T10:14:01;5.18;;;0.82;;
70132;SDS011;57495;49.922;7.966;2023-12-20T10:16:03;8.50;;;1.13;;
70132;SDS011;57495;49.922;7.966;2023-12-20T10:18:05;6.10;;;0.90;;
70132;SDS011;57495;49.922;7.966;2023-12-20T10:20:07;8.40;;;1.10;;
70132;SDS011;57495;49.922;7.966;2023-12-20T10:22:09;8.13;;;1.13;;
70132;SDS011;57495;49.922;7.966;2023-12-20T10:24:15;7.10;;;1.17;;
70132;SDS011;57495;49.922;7.966;2023-12-20T10:26:20;5.63;;;1.17;;
70132;SDS011;57495;49.922;7.966;2023-12-20T10:28:22;5.87;;;0.70;;
70132;SDS011;57495;49.922;7.966;2023-12-20T10:30:28;9.15;;;1.15;;
70132;SDS011;57495;49.922;7.966;2023-12-20T10:32:30;8.40;;;1.25;;
70132;SDS011;57495;49.922;7.966;2023-12-20T10:34:32;6.05;;;0.98;;
70132;SDS011;57495;49.922;7.966;2023-12-20T10:36:33;8.65;;;0.93;;
70132;SDS011;57495;49.922;7.966;2023-12-20T10:38:36;8.23;;;1.20;;
70132;SDS011;57495;49.922;7.966;2023-12-20T10:40:41;7.00;;;0.95;;
70132;SDS011;57495;49.922;7.966;2023-12-20T10:42:42;8.80;;;1.88;;
70132;SDS011;57495;49.922;7.966;2023-12-20T10:44:45;6.00;;;0.93;;
70132;SDS011;57495;49.922;7.966;2023-12-20T10:46:47;8.90;;;1.27;;
70132;SDS011;57495;49.922;7.966;2023-12-20T10:48:51;5.93;;;0.80;;
70132;SDS011;57495;49.922;7.966;2023-12-20T10:50:54;4.97;;;0.80;;
70132;SDS011;57495;49.922;7.966;2023-12-20T10:52:57;6.57;;;0.93;;
70132;SDS011;57495;49.922;7.966;2023-12-20T10:54:59;6.07;;;0.88;;
70132;SDS011;57495;49.922;7.966;2023-12-20T10:57:00;9.18;;;0.93;;
70132;SDS011;57495;49.922;7.966;2023-12-20T10:59:06;6.28;;;1.15;;
70132;SDS011;57495;49.922;7.966;2023-12-20T11:01:12;7.55;;;1.08;;
70132;SDS011;57495;49.922;7.966;2023-12-20T11:03:16;5.05;;;0.90;;
70132;SDS011;57495;49.922;7.966;2023-12-20T11:05:22;5.00;;;0.73;;
70132;SDS011;57495;49.922;7.966;2023-12-20T11:07:32;6.60;;;0.82;;
70132;SDS011;57495;49.922;7.966;2023-12-20T11:09:38;6.25;;;1.10;;
70132;SDS011;57495;49.922;7.966;2023-12-20T11:11:55;7.40;;;1.55;;
70132;SDS011;57495;49.922;7.966;2023-12-20T11:14:03;8.20;;;0.85;;
70132;SDS011;57495;49.922;7.966;2023-12-20T11:16:09;6.90;;;0.90;;
70132;SDS011;57495;49.922;7.966;2023-12-20T11:18:11;5.63;;;1.08;;
70132;SDS011;57495;49.922;7.966;2023-12-20T11:20:13;7.03;;;1.27;;
70132;SDS011;57495;49.922;7.966;2023-12-20T11:22:15;5.60;;;1.35;;
70132;SDS011;57495;49.922;7.966;2023-12-20T11:24:15;7.50;;;0.87;;
70132;SDS011;57495;49.922;7.966;2023-12-20T11:26:18;6.65;;;1.00;;
70132;SDS011;57495;49.922;7.966;2023-12-20T11:28:24;7.20;;;1.25;;
70132;SDS011;57495;49.922;7.966;2023-12-20T11:30:26;3.50;;;0.90;;
70132;SDS011;57495;49.922;7.966;2023-12-20T11:32:42;9.85;;;1.50;;
70132;SDS011;57495;49.922;7.966;2023-12-20T11:34:43;7.82;;;1.30;;
70132;SDS011;57495;49.922;7.966;2023-12-20T11:36:46;7.05;;;1.35;;
70132;SDS011;57495;49.922;7.966;2023-12-20T11:38:54;7.22;;;1.13;;
70132;SDS011;57495;49.922;7.966;2023-12-20T11:40:57;5.97;;;1.02;;
70132;SDS011;57495;49.922;7.966;2023-12-20T11:43:03;5.38;;;0.90;;
70132;SDS011;57495;49.922;7.966;2023-12-20T11:45:04;6.95;;;1.23;;
70132;SDS011;57495;49.922;7.966;2023-12-20T11:47:09;7.10;;;1.45;;
70132;SDS011;57495;49.922;7.966;2023-12-20T11:49:12;8.02;;;1.50;;
70132;SDS011;57495;49.922;7.966;2023-12-20T11:51:12;7.27;;;1.20;;
70132;SDS011;57495;49.922;7.966;2023-12-20T11:53:15;6.60;;;1.05;;
70132;SDS011;57495;49.922;7.966;2023-12-20T11:55:19;5.15;;;1.05;;
70132;SDS011;57495;49.922;7.966;2023-12-20T11:57:20;6.37;;;1.20;;
70132;SDS011;57495;49.922;7.966;2023-12-20T11:59:21;8.00;;;1.52;;
70132;SDS011;57495;49.922;7.966;2023-12-20T12:01:22;4.83;;;1.03;;
70132;SDS011;57495;49.922;7.966;2023-12-20T12:03:23;6.30;;;1.30;;
70132;SDS011;57495;49.922;7.966;2023-12-20T12:05:24;7.33;;;1.50;;
70132;SDS011;57495;49.922;7.966;2023-12-20T12:07:25;5.95;;;2.60;;
70132;SDS011;57495;49.922;7.966;2023-12-20T12:09:28;11.52;;;3.40;;
70132;SDS011;57495;49.922;7.966;2023-12-20T12:11:29;5.32;;;1.27;;
70132;SDS011;57495;49.922;7.966;2023-12-20T12:13:31;7.38;;;2.05;;
70132;SDS011;57495;49.922;7.966;2023-12-20T12:15:32;7.10;;;2.00;;